createdAt,value
2022-10-05T00:00:17.085Z,97.34
2022-10-05T00:01:17.001Z,97.24
2022-10-05T00:02:17.054Z,96.83
2022-10-05T00:03:17.630Z,96.73
2022-10-05T00:04:16.901Z,96.53
2022-10-05T00:05:16.855Z,96.42
2022-10-05T00:06:16.839Z,96.63
2022-10-05T00:07:16.810Z,96.63
2022-10-05T00:08:17.653Z,96.63
2022-10-05T00:09:16.902Z,96.78
2022-10-05T00:10:16.787Z,96.78
2022-10-05T00:11:17.875Z,96.67
2022-10-05T00:12:16.865Z,96.67
2022-10-05T00:13:16.824Z,97.08
2022-10-05T00:14:16.822Z,96.98
2022-10-05T00:15:16.727Z,96.88
2022-10-05T00:16:16.732Z,96.78
2022-10-05T00:17:16.728Z,96.88
2022-10-05T00:18:17.637Z,96.98
2022-10-05T00:19:16.764Z,96.67
2022-10-05T00:20:16.654Z,96.78
2022-10-05T00:21:16.804Z,96.98
2022-10-05T00:22:16.656Z,97.19
2022-10-05T00:23:16.605Z,96.83
2022-10-05T00:24:16.584Z,96.73
2022-10-05T00:25:16.588Z,96.63
2022-10-05T00:26:17.515Z,96.57
2022-10-05T00:27:16.595Z,96.47
2022-10-05T00:28:17.845Z,96.57
2022-10-05T00:29:16.539Z,96.37
2022-10-05T00:30:16.507Z,96.37
2022-10-05T00:31:16.544Z,96.37
2022-10-05T00:32:16.534Z,96.47
2022-10-05T00:33:16.497Z,96.72
2022-10-05T00:34:16.740Z,96.92
2022-10-05T00:35:16.465Z,96.92
2022-10-05T00:36:16.459Z,97.13
2022-10-05T00:37:16.479Z,97.33
2022-10-05T00:38:16.818Z,97.44
2022-10-05T00:39:16.546Z,97.44
2022-10-05T00:40:16.489Z,97.64
2022-10-05T00:41:16.431Z,97.64
2022-10-05T00:42:16.499Z,97.95
2022-10-05T00:43:16.358Z,98.16
2022-10-05T00:44:16.354Z,98.16
2022-10-05T00:45:16.320Z,98.36
2022-10-05T00:46:16.428Z,98.25
2022-10-05T00:47:17.488Z,98.25
2022-10-05T00:48:16.399Z,98.25
2022-10-05T00:49:16.250Z,98.05
2022-10-05T00:50:16.240Z,98.05
2022-10-05T00:51:16.260Z,98.16
2022-10-05T00:52:16.390Z,98.25
2022-10-05T00:53:16.210Z,98.36
2022-10-05T00:54:18.492Z,98.16
2022-10-05T00:55:16.275Z,98.10
2022-10-05T00:56:16.871Z,98.10
2022-10-05T00:57:16.300Z,98.10
2022-10-05T00:58:16.152Z,98.20
2022-10-05T00:59:16.304Z,98.20
2022-10-05T01:00:16.148Z,98.61
2022-10-05T01:01:16.181Z,98.82
2022-10-05T01:02:16.478Z,99.33
2022-10-05T01:03:16.131Z,99.18
2022-10-05T01:04:16.136Z,99.12
2022-10-05T01:05:16.078Z,98.71
2022-10-05T01:06:16.135Z,98.61
2022-10-05T01:07:17.103Z,98.82
2022-10-05T01:08:16.045Z,99.02
2022-10-05T01:09:16.035Z,99.02
2022-10-05T01:10:15.998Z,99.02
2022-10-05T01:11:16.021Z,99.02
2022-10-05T01:12:17.136Z,99.22
2022-10-05T01:13:15.935Z,99.22
2022-10-05T01:14:15.963Z,99.43
2022-10-05T01:15:15.920Z,99.54
2022-10-05T01:16:15.981Z,99.54
2022-10-05T01:17:15.924Z,99.54
2022-10-05T01:18:16.141Z,99.43
2022-10-05T01:19:16.316Z,99.33
2022-10-05T01:20:15.874Z,99.38
2022-10-05T01:21:15.881Z,99.43
2022-10-05T01:22:15.865Z,99.33
2022-10-05T01:23:15.819Z,99.33
2022-10-05T01:24:16.191Z,99.38
2022-10-05T01:25:15.907Z,99.69
2022-10-05T01:26:15.935Z,99.69
2022-10-05T01:27:15.809Z,99.69
2022-10-05T01:28:15.819Z,99.59
2022-10-05T01:29:15.805Z,99.65
2022-10-05T01:30:16.427Z,99.54
2022-10-05T01:31:15.797Z,99.34
2022-10-05T01:32:15.742Z,98.99
2022-10-05T01:33:15.716Z,98.78
2022-10-05T01:34:15.737Z,98.47
2022-10-05T01:35:15.808Z,98.16
2022-10-05T01:36:15.679Z,97.91
2022-10-05T01:37:15.670Z,97.71
2022-10-05T01:38:15.617Z,97.50
2022-10-05T01:39:15.606Z,97.40
2022-10-05T01:40:15.594Z,97.61
2022-10-05T01:41:15.658Z,97.61
2022-10-05T01:42:15.590Z,97.30
2022-10-05T01:43:15.555Z,96.99
2022-10-05T01:44:15.878Z,96.89
2022-10-05T01:45:15.959Z,97.09
2022-10-05T01:46:15.664Z,97.09
2022-10-05T01:47:15.519Z,96.99
2022-10-05T01:48:16.310Z,96.99
2022-10-05T01:49:15.603Z,96.89
2022-10-05T01:50:16.474Z,97.09
2022-10-05T01:51:15.703Z,97.30
2022-10-05T01:52:15.446Z,97.30
2022-10-05T01:53:15.454Z,97.30
2022-10-05T01:54:15.411Z,97.15
2022-10-05T01:55:15.420Z,97.05
2022-10-05T01:56:16.355Z,97.05
2022-10-05T01:57:15.400Z,97.05
2022-10-05T01:58:15.376Z,96.95
2022-10-05T01:59:15.592Z,96.84
2022-10-05T02:00:15.364Z,96.74
2022-10-05T02:01:15.404Z,96.64
2022-10-05T02:02:15.541Z,96.54
2022-10-05T02:03:16.332Z,96.64
2022-10-05T02:04:30.997Z,96.54
2022-10-05T02:05:16.303Z,96.44
2022-10-05T02:06:15.299Z,96.49
2022-10-05T02:07:15.340Z,96.39
2022-10-05T02:08:15.337Z,96.44
2022-10-05T02:09:15.261Z,96.49
2022-10-05T02:10:15.295Z,96.49
2022-10-05T02:11:15.237Z,96.49
2022-10-05T02:12:15.174Z,96.39
2022-10-05T02:13:15.255Z,96.39
2022-10-05T02:14:15.180Z,96.19
2022-10-05T02:15:15.899Z,96.29
2022-10-05T02:16:15.223Z,96.39
2022-10-05T02:17:15.128Z,96.49
2022-10-05T02:18:15.219Z,96.39
2022-10-05T02:19:15.226Z,96.39
2022-10-05T02:20:15.068Z,96.39
2022-10-05T02:21:15.061Z,96.39
2022-10-05T02:22:15.065Z,96.39
2022-10-05T02:23:15.217Z,96.59
2022-10-05T02:24:15.050Z,96.49
2022-10-05T02:25:15.036Z,96.39
2022-10-05T02:26:15.025Z,96.49
2022-10-05T02:27:15.020Z,96.49
2022-10-05T02:28:16.519Z,96.39
2022-10-05T02:29:14.985Z,96.34
2022-10-05T02:30:16.736Z,96.25
2022-10-05T02:31:15.033Z,96.04
2022-10-05T02:32:15.034Z,95.94
2022-10-05T02:33:15.468Z,95.84
2022-10-05T02:34:15.052Z,95.73
2022-10-05T02:35:15.076Z,95.73
2022-10-05T02:36:15.729Z,95.63
2022-10-05T02:37:14.882Z,95.53
2022-10-05T02:38:15.071Z,95.53
2022-10-05T02:39:14.868Z,95.43
2022-10-05T02:40:14.811Z,95.18
2022-10-05T02:41:14.848Z,95.18
2022-10-05T02:42:14.840Z,94.97
2022-10-05T02:43:14.803Z,94.87
2022-10-05T02:44:14.818Z,94.77
2022-10-05T02:45:14.787Z,94.87
2022-10-05T02:46:14.782Z,94.87
2022-10-05T02:47:15.710Z,94.77
2022-10-05T02:48:14.710Z,94.67
2022-10-05T02:49:14.893Z,94.56
2022-10-05T02:50:14.722Z,94.42
2022-10-05T02:51:14.661Z,94.21
2022-10-05T02:52:14.682Z,94.11
2022-10-05T02:53:14.643Z,93.91
2022-10-05T02:54:14.705Z,93.91
2022-10-05T02:55:14.677Z,93.70
2022-10-05T02:56:14.791Z,93.80
2022-10-05T02:57:14.648Z,93.60
2022-10-05T02:58:14.866Z,93.60
2022-10-05T02:59:14.607Z,93.45
2022-10-05T03:00:14.706Z,93.35
2022-10-05T03:01:14.643Z,93.25
2022-10-05T03:02:14.929Z,93.15
2022-10-05T03:03:14.546Z,93.35
2022-10-05T03:04:14.486Z,93.45
2022-10-05T03:05:14.495Z,93.35
2022-10-05T03:06:15.246Z,93.40
2022-10-05T03:07:15.458Z,93.50
2022-10-05T03:08:14.447Z,93.70
2022-10-05T03:09:14.536Z,93.80
2022-10-05T03:10:14.519Z,94.11
2022-10-05T03:11:14.463Z,94.11
2022-10-05T03:12:14.401Z,94.11
2022-10-05T03:13:14.438Z,94.21
2022-10-05T03:14:14.366Z,94.21
2022-10-05T03:15:14.392Z,94.42
2022-10-05T03:16:14.473Z,94.42
2022-10-05T03:17:14.439Z,94.32
2022-10-05T03:18:14.600Z,94.32
2022-10-05T03:19:15.089Z,94.42
2022-10-05T03:20:14.324Z,94.42
2022-10-05T03:21:14.318Z,94.42
2022-10-05T03:22:14.253Z,94.42
2022-10-05T03:23:14.260Z,94.52
2022-10-05T03:24:14.250Z,94.52
2022-10-05T03:25:14.222Z,94.62
2022-10-05T03:26:15.030Z,94.42
2022-10-05T03:27:14.215Z,94.32
2022-10-05T03:28:14.262Z,94.32
2022-10-05T03:29:14.153Z,94.21
2022-10-05T03:30:15.662Z,94.21
2022-10-05T03:31:14.315Z,94.21
2022-10-05T03:32:14.400Z,94.21
2022-10-05T03:33:14.158Z,94.32
2022-10-05T03:34:14.091Z,94.32
2022-10-05T03:35:14.074Z,94.42
2022-10-05T03:36:14.171Z,94.42
2022-10-05T03:37:14.167Z,94.32
2022-10-05T03:38:14.075Z,94.21
2022-10-05T03:39:14.156Z,94.21
2022-10-05T03:40:14.055Z,94.21
2022-10-05T03:41:14.487Z,94.11
2022-10-05T03:42:14.063Z,94.01
2022-10-05T03:43:14.002Z,93.91
2022-10-05T03:44:14.068Z,93.80
2022-10-05T03:45:13.993Z,93.80
2022-10-05T03:46:14.029Z,93.91
2022-10-05T03:47:13.956Z,93.91
2022-10-05T03:48:14.014Z,93.91
2022-10-05T03:49:13.978Z,93.91
2022-10-05T03:50:13.934Z,93.76
2022-10-05T03:51:13.917Z,93.66
2022-10-05T03:52:14.216Z,93.55
2022-10-05T03:53:13.859Z,93.66
2022-10-05T03:54:13.845Z,93.66
2022-10-05T03:55:13.844Z,93.55
2022-10-05T03:56:13.803Z,93.66
2022-10-05T03:57:13.850Z,93.55
2022-10-05T03:58:14.074Z,93.55
2022-10-05T03:59:13.818Z,93.55
2022-10-05T04:00:13.778Z,93.66
2022-10-05T04:01:13.799Z,93.66
2022-10-05T04:02:13.761Z,93.45
2022-10-05T04:03:13.800Z,93.55
2022-10-05T04:04:13.687Z,93.70
2022-10-05T04:05:13.760Z,93.70
2022-10-05T04:06:13.672Z,93.60
2022-10-05T04:07:13.667Z,93.60
2022-10-05T04:08:13.719Z,93.60
2022-10-05T04:09:13.659Z,93.70
2022-10-05T04:10:14.899Z,93.70
2022-10-05T04:11:14.799Z,93.70
2022-10-05T04:12:13.604Z,93.60
2022-10-05T04:13:13.653Z,93.70
2022-10-05T04:14:13.628Z,93.60
2022-10-05T04:15:18.575Z,93.70
2022-10-05T04:16:14.696Z,93.70
2022-10-05T04:17:14.733Z,93.80
2022-10-05T04:18:13.579Z,94.11
2022-10-05T04:19:13.550Z,94.11
2022-10-05T04:20:13.524Z,94.11
2022-10-05T04:21:13.691Z,94.01
2022-10-05T04:22:13.554Z,94.11
2022-10-05T04:23:13.483Z,94.11
2022-10-05T04:24:13.495Z,94.21
2022-10-05T04:25:13.512Z,94.32
2022-10-05T04:26:14.379Z,94.21
2022-10-05T04:27:13.512Z,94.11
2022-10-05T04:28:14.222Z,93.91
2022-10-05T04:29:13.442Z,94.01
2022-10-05T04:30:13.404Z,93.91
2022-10-05T04:31:14.442Z,93.80
2022-10-05T04:32:13.414Z,93.70
2022-10-05T04:33:13.372Z,93.60
2022-10-05T04:34:13.333Z,93.60
2022-10-05T04:35:13.506Z,93.60
2022-10-05T04:36:13.417Z,93.45
2022-10-05T04:37:13.292Z,93.45
2022-10-05T04:38:13.315Z,93.35
2022-10-05T04:39:13.299Z,93.35
2022-10-05T04:40:13.290Z,93.25
2022-10-05T04:41:13.275Z,93.15
2022-10-05T04:42:13.257Z,93.25
2022-10-05T04:43:13.255Z,93.15
2022-10-05T04:44:13.185Z,93.15
2022-10-05T04:45:13.184Z,93.15
2022-10-05T04:46:13.250Z,93.05
2022-10-05T04:47:13.289Z,93.15
2022-10-05T04:48:14.322Z,93.15
2022-10-05T04:49:14.230Z,93.25
2022-10-05T04:50:13.288Z,93.15
2022-10-05T04:51:13.141Z,93.15
2022-10-05T04:52:13.104Z,93.15
2022-10-05T04:53:13.063Z,93.05
2022-10-05T04:54:13.052Z,93.15
2022-10-05T04:55:14.170Z,93.15
2022-10-05T04:56:13.077Z,93.05
2022-10-05T04:57:13.250Z,93.05
2022-10-05T04:58:13.000Z,92.94
2022-10-05T04:59:13.780Z,93.05
2022-10-05T05:00:13.321Z,92.94
2022-10-05T05:01:13.144Z,92.94
2022-10-05T05:02:13.000Z,92.84
2022-10-05T05:03:12.971Z,92.84
2022-10-05T05:04:13.075Z,92.94
2022-10-05T05:05:12.952Z,92.84
2022-10-05T05:06:17.376Z,92.94
2022-10-05T05:07:13.982Z,92.94
2022-10-05T05:08:12.856Z,92.84
2022-10-05T05:09:12.882Z,93.05
2022-10-05T05:10:12.925Z,92.94
2022-10-05T05:11:16.327Z,92.94
2022-10-05T05:12:13.885Z,92.94
2022-10-05T05:13:12.891Z,92.94
2022-10-05T05:14:13.874Z,92.84
2022-10-05T05:15:12.797Z,92.94
2022-10-05T05:16:13.007Z,92.84
2022-10-05T05:17:13.370Z,92.84
2022-10-05T05:18:12.756Z,92.94
2022-10-05T05:19:12.715Z,93.05
2022-10-05T05:20:12.704Z,93.05
2022-10-05T05:21:14.142Z,92.84
2022-10-05T05:22:12.698Z,92.94
2022-10-05T05:23:12.734Z,93.05
2022-10-05T05:24:12.684Z,93.05
2022-10-05T05:25:12.636Z,93.05
2022-10-05T05:26:12.768Z,93.05
2022-10-05T05:27:12.637Z,93.05
2022-10-05T05:28:12.664Z,93.05
2022-10-05T05:29:12.634Z,92.94
2022-10-05T05:30:12.614Z,92.94
2022-10-05T05:31:12.630Z,92.94
2022-10-05T05:32:12.551Z,92.84
2022-10-05T05:33:12.576Z,93.05
2022-10-05T05:34:13.488Z,93.15
2022-10-05T05:35:13.397Z,93.15
2022-10-05T05:36:12.587Z,93.15
2022-10-05T05:37:12.641Z,93.05
2022-10-05T05:38:12.498Z,92.94
2022-10-05T05:39:13.498Z,92.94
2022-10-05T05:40:12.818Z,92.94
2022-10-05T05:41:12.462Z,93.15
2022-10-05T05:42:12.472Z,93.29
2022-10-05T05:43:12.430Z,93.40
2022-10-05T05:44:12.400Z,93.50
2022-10-05T05:45:12.494Z,93.60
2022-10-05T05:46:12.398Z,93.60
2022-10-05T05:47:13.765Z,93.60
2022-10-05T05:48:12.379Z,93.50
2022-10-05T05:49:12.343Z,93.50
2022-10-05T05:50:12.411Z,93.45
2022-10-05T05:51:12.332Z,93.50
2022-10-05T05:52:13.295Z,93.45
2022-10-05T05:53:12.687Z,93.45
2022-10-05T05:54:12.303Z,93.35
2022-10-05T05:55:12.323Z,93.45
2022-10-05T05:56:12.291Z,93.35
2022-10-05T05:57:12.234Z,93.35
2022-10-05T05:58:12.285Z,93.35
2022-10-05T05:59:12.214Z,93.05
2022-10-05T06:00:12.182Z,93.05
2022-10-05T06:01:30.571Z,93.15
2022-10-05T06:02:13.239Z,93.05
2022-10-05T06:03:12.227Z,93.15
2022-10-05T06:04:12.127Z,93.10
2022-10-05T06:05:12.325Z,93.10
2022-10-05T06:06:12.166Z,93.00
2022-10-05T06:07:12.116Z,93.10
2022-10-05T06:08:12.107Z,93.10
2022-10-05T06:09:12.054Z,92.90
2022-10-05T06:10:12.083Z,92.80
2022-10-05T06:11:12.052Z,92.86
2022-10-05T06:12:12.019Z,92.65
2022-10-05T06:13:12.006Z,92.45
2022-10-05T06:14:12.044Z,92.45
2022-10-05T06:15:12.016Z,92.24
2022-10-05T06:16:12.090Z,92.14
2022-10-05T06:17:11.999Z,92.10
2022-10-05T06:18:12.847Z,91.79
2022-10-05T06:19:11.958Z,91.49
2022-10-05T06:20:11.937Z,91.59
2022-10-05T06:21:11.977Z,91.59
2022-10-05T06:22:11.955Z,91.55
2022-10-05T06:23:12.007Z,91.55
2022-10-05T06:24:11.908Z,91.75
2022-10-05T06:25:11.909Z,91.55
2022-10-05T06:26:11.849Z,91.24
2022-10-05T06:27:11.836Z,91.14
2022-10-05T06:28:11.901Z,90.63
2022-10-05T06:29:11.836Z,90.53
2022-10-05T06:30:12.717Z,90.28
2022-10-05T06:31:11.854Z,89.97
2022-10-05T06:32:11.816Z,90.48
2022-10-05T06:33:11.781Z,90.38
2022-10-05T06:34:11.802Z,90.08
2022-10-05T06:35:11.761Z,90.08
2022-10-05T06:36:11.700Z,90.28
2022-10-05T06:37:11.820Z,90.38
2022-10-05T06:38:11.701Z,90.48
2022-10-05T06:39:12.145Z,90.18
2022-10-05T06:40:11.722Z,89.77
2022-10-05T06:41:11.661Z,89.87
2022-10-05T06:42:11.672Z,89.87
2022-10-05T06:43:11.643Z,89.63
2022-10-05T06:44:11.590Z,89.94
2022-10-05T06:45:11.644Z,89.63
2022-10-05T06:46:11.643Z,89.63
2022-10-05T06:47:11.559Z,89.32
2022-10-05T06:48:11.562Z,89.42
2022-10-05T06:49:11.533Z,89.63
2022-10-05T06:50:11.618Z,89.63
2022-10-05T06:51:11.556Z,89.73
2022-10-05T06:52:11.514Z,89.32
2022-10-05T06:53:11.496Z,89.63
2022-10-05T06:54:11.546Z,89.53
2022-10-05T06:55:14.191Z,89.32
2022-10-05T06:56:11.449Z,89.18
2022-10-05T06:57:11.467Z,89.18
2022-10-05T06:58:11.516Z,88.87
2022-10-05T06:59:11.455Z,89.07
2022-10-05T07:00:11.416Z,88.98
2022-10-05T07:01:11.407Z,88.98
2022-10-05T07:02:11.414Z,88.77
2022-10-05T07:03:11.679Z,88.87
2022-10-05T07:04:11.372Z,88.46
2022-10-05T07:05:11.405Z,88.77
2022-10-05T07:06:11.316Z,88.46
2022-10-05T07:07:11.357Z,88.98
2022-10-05T07:08:11.822Z,88.63
2022-10-05T07:09:12.558Z,88.46
2022-10-05T07:10:11.309Z,88.53
2022-10-05T07:11:11.293Z,88.32
2022-10-05T07:12:11.243Z,88.22
2022-10-05T07:13:11.259Z,88.42
2022-10-05T07:14:11.272Z,88.73
2022-10-05T07:15:11.234Z,88.42
2022-10-05T07:16:11.209Z,88.32
2022-10-05T07:17:11.288Z,88.22
2022-10-05T07:18:11.162Z,88.42
2022-10-05T07:19:11.137Z,87.92
2022-10-05T07:20:11.185Z,88.22
2022-10-05T07:21:11.143Z,88.32
2022-10-05T07:22:11.635Z,88.02
2022-10-05T07:23:11.151Z,87.71
2022-10-05T07:24:11.092Z,88.42
2022-10-05T07:25:11.081Z,88.18
2022-10-05T07:26:12.021Z,87.57
2022-10-05T07:27:11.083Z,87.16
2022-10-05T07:28:12.321Z,87.26
2022-10-05T07:29:11.563Z,87.32
2022-10-05T07:30:11.037Z,86.82
2022-10-05T07:31:11.109Z,86.92
2022-10-05T07:32:11.923Z,87.08
2022-10-05T07:33:11.015Z,86.07
2022-10-05T07:34:12.204Z,86.07
2022-10-05T07:35:10.937Z,85.52
2022-10-05T07:36:10.941Z,85.82
2022-10-05T07:37:10.902Z,85.98
2022-10-05T07:38:10.964Z,84.77
2022-10-05T07:39:10.875Z,83.95
2022-10-05T07:40:10.907Z,84.12
2022-10-05T07:41:10.860Z,84.52
2022-10-05T07:42:10.915Z,83.98
2022-10-05T07:43:10.895Z,82.96
2022-10-05T07:44:12.980Z,83.33
2022-10-05T07:45:10.835Z,82.62
2022-10-05T07:46:10.851Z,82.92
2022-10-05T07:47:10.977Z,81.81
2022-10-05T07:48:10.790Z,82.17
2022-10-05T07:49:10.772Z,81.87
2022-10-05T07:50:10.729Z,81.57
2022-10-05T07:51:10.718Z,80.96
2022-10-05T07:52:10.707Z,80.92
2022-10-05T07:53:10.711Z,81.32
2022-10-05T07:54:10.690Z,80.72
2022-10-05T07:55:10.917Z,80.62
2022-10-05T07:56:10.680Z,81.02
2022-10-05T07:57:10.667Z,80.82
2022-10-05T07:58:10.680Z,80.52
2022-10-05T07:59:11.861Z,79.91
2022-10-05T08:00:10.642Z,80.01
2022-10-05T08:01:10.585Z,80.11
2022-10-05T08:02:10.751Z,80.41
2022-10-05T08:03:10.682Z,80.72
2022-10-05T08:04:10.604Z,80.31
2022-10-05T08:05:10.573Z,80.92
2022-10-05T08:06:10.562Z,80.21
2022-10-05T08:07:10.565Z,80.58
2022-10-05T08:08:10.991Z,79.77
2022-10-05T08:09:10.515Z,80.27
2022-10-05T08:10:10.471Z,79.97
2022-10-05T08:11:10.471Z,79.77
2022-10-05T08:12:10.505Z,79.26
2022-10-05T08:13:10.462Z,79.36
2022-10-05T08:14:10.578Z,79.16
2022-10-05T08:15:10.420Z,79.16
2022-10-05T08:16:10.535Z,79.36
2022-10-05T08:17:10.473Z,79.77
2022-10-05T08:18:10.386Z,80.07
2022-10-05T08:19:10.858Z,79.67
2022-10-05T08:20:10.416Z,79.26
2022-10-05T08:21:10.323Z,79.50
2022-10-05T08:22:10.312Z,79.46
2022-10-05T08:23:10.315Z,79.67
2022-10-05T08:24:11.544Z,80.07
2022-10-05T08:25:11.278Z,79.36
2022-10-05T08:26:10.489Z,78.96
2022-10-05T08:27:10.257Z,79.16
2022-10-05T08:28:10.331Z,78.92
2022-10-05T08:29:13.653Z,79.33
2022-10-05T08:30:10.306Z,78.42
2022-10-05T08:31:10.228Z,78.48
2022-10-05T08:32:11.251Z,78.17
2022-10-05T08:33:10.167Z,77.94
2022-10-05T08:34:10.167Z,77.53
2022-10-05T08:35:10.202Z,76.79
2022-10-05T08:36:10.571Z,76.95
2022-10-05T08:37:10.439Z,76.04
2022-10-05T08:38:10.255Z,75.64
2022-10-05T08:39:10.159Z,76.35
2022-10-05T08:40:10.061Z,76.62
2022-10-05T08:41:10.090Z,75.71
2022-10-05T08:42:10.059Z,75.77
2022-10-05T08:43:10.080Z,74.16
2022-10-05T08:44:10.100Z,74.96
2022-10-05T08:45:11.039Z,75.16
2022-10-05T08:46:10.170Z,74.22
2022-10-05T08:47:09.973Z,74.12
2022-10-05T08:48:09.962Z,73.62
2022-10-05T08:49:09.994Z,73.18
2022-10-05T08:50:09.984Z,73.88
2022-10-05T08:51:10.128Z,73.45
2022-10-05T08:52:10.002Z,72.98
2022-10-05T08:53:09.896Z,72.88
2022-10-05T08:54:09.914Z,71.94
2022-10-05T08:55:09.918Z,72.54
2022-10-05T08:56:09.923Z,72.14
2022-10-05T08:57:10.317Z,72.27
2022-10-05T08:58:10.796Z,72.58
2022-10-05T08:59:09.831Z,72.98
2022-10-05T09:00:10.341Z,73.32
2022-10-05T09:01:09.823Z,73.42
2022-10-05T09:02:09.878Z,75.03
2022-10-05T09:03:09.766Z,74.93
2022-10-05T09:04:09.779Z,74.02
2022-10-05T09:05:09.778Z,74.36
2022-10-05T09:06:09.809Z,74.69
2022-10-05T09:07:09.730Z,75.20
2022-10-05T09:08:09.758Z,75.04
2022-10-05T09:09:09.732Z,76.15
2022-10-05T09:10:09.851Z,75.88
2022-10-05T09:11:09.788Z,76.28
2022-10-05T09:12:09.661Z,76.79
2022-10-05T09:13:09.666Z,77.09
2022-10-05T09:14:09.654Z,76.48
2022-10-05T09:15:26.557Z,76.45
2022-10-05T09:16:10.997Z,76.45
2022-10-05T09:17:09.610Z,76.04
2022-10-05T09:18:09.594Z,76.11
2022-10-05T09:19:09.584Z,75.57
2022-10-05T09:20:09.621Z,75.57
2022-10-05T09:21:09.524Z,75.13
2022-10-05T09:22:09.534Z,74.93
2022-10-05T09:23:09.503Z,75.30
2022-10-05T09:24:09.506Z,73.88
2022-10-05T09:25:09.503Z,74.22
2022-10-05T09:26:09.486Z,74.02
2022-10-05T09:27:09.504Z,73.32
2022-10-05T09:28:10.470Z,73.68
2022-10-05T09:29:10.386Z,73.48
2022-10-05T09:30:09.446Z,73.58
2022-10-05T09:31:09.450Z,73.01
2022-10-05T09:32:13.026Z,73.01
2022-10-05T09:33:10.436Z,73.32
2022-10-05T09:34:09.387Z,73.82
2022-10-05T09:35:09.338Z,73.15
2022-10-05T09:36:10.229Z,73.75
2022-10-05T09:37:09.440Z,74.46
2022-10-05T09:38:09.318Z,74.76
2022-10-05T09:39:09.299Z,74.66
2022-10-05T09:40:09.361Z,74.83
2022-10-05T09:41:09.770Z,74.73
2022-10-05T09:42:09.262Z,74.22
2022-10-05T09:43:09.381Z,73.82
2022-10-05T09:44:09.259Z,73.65
2022-10-05T09:45:09.201Z,74.26
2022-10-05T09:46:09.288Z,74.16
2022-10-05T09:47:09.253Z,74.16
2022-10-05T09:48:09.371Z,74.76
2022-10-05T09:49:09.223Z,74.73
2022-10-05T09:50:09.148Z,73.65
2022-10-05T09:51:09.164Z,74.32
2022-10-05T09:52:09.156Z,73.62
2022-10-05T09:53:09.140Z,73.82
2022-10-05T09:54:09.161Z,74.12
2022-10-05T09:55:09.092Z,74.63
2022-10-05T09:56:09.216Z,73.68
2022-10-05T09:57:09.074Z,72.61
2022-10-05T09:58:09.053Z,73.62
2022-10-05T09:59:09.063Z,73.62
2022-10-05T10:00:09.272Z,73.58
2022-10-05T10:01:15.992Z,72.98
2022-10-05T10:02:10.359Z,72.51
2022-10-05T10:03:09.097Z,73.68
2022-10-05T10:04:09.066Z,72.38
2022-10-05T10:05:09.018Z,72.74
2022-10-05T10:06:09.186Z,72.94
2022-10-05T10:07:08.938Z,73.21
2022-10-05T10:08:09.710Z,72.31
2022-10-05T10:09:09.008Z,71.60
2022-10-05T10:10:08.954Z,72.07
2022-10-05T10:11:08.893Z,71.97
2022-10-05T10:12:08.901Z,71.50
2022-10-05T10:13:09.730Z,71.60
2022-10-05T10:14:09.648Z,71.60
2022-10-05T10:15:08.971Z,71.80
2022-10-05T10:16:08.914Z,71.60
2022-10-05T10:17:08.791Z,71.84
2022-10-05T10:18:08.770Z,72.54
2022-10-05T10:19:08.803Z,71.84
2022-10-05T10:20:09.651Z,71.44
2022-10-05T10:21:08.772Z,71.91
2022-10-05T10:22:08.731Z,72.31
2022-10-05T10:23:08.711Z,71.20
2022-10-05T10:24:08.723Z,71.64
2022-10-05T10:25:08.759Z,72.41
2022-10-05T10:26:08.728Z,71.91
2022-10-05T10:27:08.746Z,72.20
2022-10-05T10:28:08.683Z,71.70
2022-10-05T10:29:08.675Z,71.91
2022-10-05T10:30:08.695Z,71.94
2022-10-05T10:31:08.774Z,72.94
2022-10-05T10:32:09.456Z,72.04
2022-10-05T10:33:08.671Z,72.85
2022-10-05T10:34:08.559Z,72.44
2022-10-05T10:35:08.605Z,72.34
2022-10-05T10:36:08.559Z,71.73
2022-10-05T10:37:08.607Z,72.34
2022-10-05T10:38:08.551Z,72.54
2022-10-05T10:39:08.527Z,72.64
2022-10-05T10:40:08.531Z,71.73
2022-10-05T10:41:08.468Z,71.44
2022-10-05T10:42:08.491Z,71.64
2022-10-05T10:43:08.529Z,72.34
2022-10-05T10:44:08.458Z,72.24
2022-10-05T10:45:09.231Z,71.33
2022-10-05T10:46:08.474Z,71.23
2022-10-05T10:47:08.428Z,71.67
2022-10-05T10:48:08.420Z,71.57
2022-10-05T10:49:08.405Z,71.67
2022-10-05T10:50:08.364Z,71.70
2022-10-05T10:51:08.343Z,72.00
2022-10-05T10:52:08.947Z,72.31
2022-10-05T10:53:08.352Z,72.11
2022-10-05T10:54:08.355Z,72.24
2022-10-05T10:55:08.312Z,72.54
2022-10-05T10:56:08.340Z,72.44
2022-10-05T10:57:08.293Z,72.54
2022-10-05T10:58:11.242Z,73.05
2022-10-05T10:59:09.346Z,72.95
2022-10-05T11:00:08.223Z,72.64
2022-10-05T11:01:08.201Z,72.14
2022-10-05T11:02:08.299Z,72.85
2022-10-05T11:03:08.339Z,72.75
2022-10-05T11:04:08.279Z,73.08
2022-10-05T11:05:08.203Z,72.64
2022-10-05T11:06:08.197Z,72.58
2022-10-05T11:07:08.137Z,72.68
2022-10-05T11:08:08.126Z,72.64
2022-10-05T11:09:08.236Z,72.54
2022-10-05T11:10:08.100Z,72.91
2022-10-05T11:11:08.077Z,71.91
2022-10-05T11:12:08.137Z,71.30
2022-10-05T11:13:08.039Z,72.67
2022-10-05T11:14:08.421Z,71.97
2022-10-05T11:15:08.085Z,70.86
2022-10-05T11:17:08.004Z,70.15
2022-10-05T11:18:07.999Z,71.20
2022-10-05T11:19:08.047Z,70.97
2022-10-05T11:20:08.079Z,71.17
2022-10-05T11:21:07.973Z,70.56
2022-10-05T11:22:07.958Z,70.15
2022-10-05T11:23:08.020Z,70.56
2022-10-05T11:24:08.099Z,70.76
2022-10-05T11:25:07.912Z,70.36
2022-10-05T11:26:07.882Z,70.15
2022-10-05T11:27:07.908Z,70.66
2022-10-05T11:28:07.959Z,71.47
2022-10-05T11:29:07.964Z,70.66
2022-10-05T11:30:07.843Z,71.47
2022-10-05T11:31:07.916Z,70.46
2022-10-05T11:32:07.802Z,71.00
2022-10-05T11:33:07.808Z,71.57
2022-10-05T11:34:07.774Z,71.97
2022-10-05T11:35:07.796Z,70.56
2022-10-05T11:36:07.747Z,70.76
2022-10-05T11:37:07.779Z,71.06
2022-10-05T11:38:07.845Z,71.17
2022-10-05T11:39:07.735Z,70.86
2022-10-05T11:40:07.727Z,71.00
2022-10-05T11:41:07.699Z,71.50
2022-10-05T11:42:07.698Z,71.40
2022-10-05T11:43:08.780Z,71.70
2022-10-05T11:44:07.650Z,71.20
2022-10-05T11:45:07.679Z,71.70
2022-10-05T11:46:07.731Z,72.31
2022-10-05T11:47:07.603Z,72.51
2022-10-05T11:48:08.809Z,71.60
2022-10-05T11:49:08.720Z,72.00
2022-10-05T11:50:07.603Z,72.00
2022-10-05T11:51:07.573Z,72.81
2022-10-05T11:52:07.570Z,72.00
2022-10-05T11:53:07.547Z,71.44
2022-10-05T11:54:07.513Z,72.44
2022-10-05T11:55:12.056Z,72.54
2022-10-05T11:56:08.582Z,72.11
2022-10-05T11:57:07.584Z,72.11
2022-10-05T11:58:07.534Z,71.70
2022-10-05T11:59:07.474Z,71.91
2022-10-05T12:00:07.454Z,71.50
2022-10-05T12:01:07.447Z,71.67
2022-10-05T12:02:07.484Z,71.47
2022-10-05T12:03:07.428Z,71.23
2022-10-05T12:04:07.522Z,71.13
2022-10-05T12:05:07.389Z,71.17
2022-10-05T12:06:07.403Z,70.53
2022-10-05T12:07:07.337Z,70.12
2022-10-05T12:08:07.366Z,70.62
2022-10-05T12:09:07.317Z,71.03
2022-10-05T12:10:07.329Z,70.62
2022-10-05T12:11:07.368Z,70.42
2022-10-05T12:12:07.268Z,70.19
2022-10-05T12:13:07.410Z,70.16
2022-10-05T12:14:08.369Z,69.45
2022-10-05T12:15:07.249Z,69.56
2022-10-05T12:16:07.302Z,69.15
2022-10-05T12:17:07.280Z,69.15
2022-10-05T12:18:07.198Z,69.35
2022-10-05T12:19:07.211Z,69.35
2022-10-05T12:20:07.205Z,68.95
2022-10-05T12:21:07.192Z,69.15
2022-10-05T12:22:07.322Z,69.35
2022-10-05T12:23:07.204Z,69.45
2022-10-05T12:25:41.406Z,68.78
2022-10-05T12:26:17.303Z,69.52
2022-10-05T12:27:17.178Z,70.02
2022-10-05T12:28:17.236Z,70.36
2022-10-05T12:29:17.213Z,70.73
2022-10-05T12:30:17.232Z,70.73
2022-10-05T12:31:17.229Z,69.69
2022-10-05T12:32:17.152Z,69.85
2022-10-05T12:33:17.122Z,68.95
2022-10-05T12:34:17.091Z,68.62
2022-10-05T12:35:29.993Z,68.08
2022-10-05T12:36:18.182Z,68.59
2022-10-05T12:37:17.064Z,67.27
2022-10-05T12:38:17.157Z,67.07
2022-10-05T12:39:17.042Z,66.64
2022-10-05T12:40:17.038Z,67.14
2022-10-05T12:41:17.007Z,66.54
2022-10-05T12:42:17.022Z,66.54
2022-10-05T12:43:16.975Z,67.04
2022-10-05T12:44:17.147Z,65.91
2022-10-05T12:45:16.977Z,65.84
2022-10-05T12:46:16.952Z,66.34
2022-10-05T12:47:17.017Z,66.24
2022-10-05T12:48:16.907Z,66.37
2022-10-05T12:49:16.956Z,67.07
2022-10-05T12:50:16.942Z,67.18
2022-10-05T12:51:16.935Z,67.07
2022-10-05T12:52:17.027Z,66.67
2022-10-05T12:53:16.842Z,66.07
2022-10-05T12:54:17.654Z,66.37